sensor_id;sensor_type;location;lat;lon;timestamp;pressure;altitude;pressure_sealevel;temperature;humidity
61908;BME280;47864;52.526;19.672;2022-09-20T00:00:32;100518.53;;;8.12;100.00
61908;BME280;47864;52.526;19.672;2022-09-20T00:02:34;100525.03;;;8.08;100.00
61908;BME280;47864;52.526;19.672;2022-09-20T00:04:35;100517.69;;;8.11;100.00
61908;BME280;47864;52.526;19.672;2022-09-20T00:06:37;100520.34;;;8.11;100.00
61908;BME280;47864;52.526;19.672;2022-09-20T00:08:39;100525.63;;;8.11;100.00
61908;BME280;47864;52.526;19.672;2022-09-20T00:10:42;100517.00;;;8.19;100.00
61908;BME280;47864;52.526;19.672;2022-09-20T00:12:43;100521.59;;;8.17;100.00
61908;BME280;47864;52.526;19.672;2022-09-20T00:14:45;100511.00;;;8.17;100.00
61908;BME280;47864;52.526;19.672;2022-09-20T00:16:47;100507.41;;;8.18;100.00
61908;BME280;47864;52.526;19.672;2022-09-20T00:18:53;100503.22;;;8.06;100.00
61908;BME280;47864;52.526;19.672;2022-09-20T00:20:55;100480.97;;;7.89;100.00
61908;BME280;47864;52.526;19.672;2022-09-20T00:22:57;100517.81;;;7.90;100.00
61908;BME280;47864;52.526;19.672;2022-09-20T00:24:59;100518.16;;;7.76;100.00
61908;BME280;47864;52.526;19.672;2022-09-20T00:27:01;100523.91;;;7.81;100.00
61908;BME280;47864;52.526;19.672;2022-09-20T00:29:03;100518.19;;;7.86;100.00
61908;BME280;47864;52.526;19.672;2022-09-20T00:31:05;100520.72;;;7.87;100.00
61908;BME280;47864;52.526;19.672;2022-09-20T00:33:07;100520.72;;;7.87;100.00
61908;BME280;47864;52.526;19.672;2022-09-20T00:35:09;100524.06;;;7.89;100.00
61908;BME280;47864;52.526;19.672;2022-09-20T00:37:11;100525.72;;;7.90;100.00
61908;BME280;47864;52.526;19.672;2022-09-20T00:39:14;100529.31;;;7.80;100.00
61908;BME280;47864;52.526;19.672;2022-09-20T00:41:16;100525.38;;;7.74;100.00
61908;BME280;47864;52.526;19.672;2022-09-20T00:43:35;100519.75;;;7.88;100.00
61908;BME280;47864;52.526;19.672;2022-09-20T00:45:38;100520.28;;;7.92;100.00
61908;BME280;47864;52.526;19.672;2022-09-20T00:47:48;100516.81;;;7.91;100.00
61908;BME280;47864;52.526;19.672;2022-09-20T00:49:56;100524.03;;;7.80;100.00
61908;BME280;47864;52.526;19.672;2022-09-20T00:52:01;100534.03;;;7.86;100.00
61908;BME280;47864;52.526;19.672;2022-09-20T00:54:03;100524.31;;;7.86;100.00
61908;BME280;47864;52.526;19.672;2022-09-20T00:56:16;100513.34;;;7.81;100.00
61908;BME280;47864;52.526;19.672;2022-09-20T00:58:20;100521.53;;;7.88;100.00
61908;BME280;47864;52.526;19.672;2022-09-20T01:00:25;100534.97;;;7.75;100.00
61908;BME280;47864;52.526;19.672;2022-09-20T01:02:29;100536.34;;;7.70;100.00
61908;BME280;47864;52.526;19.672;2022-09-20T01:04:34;100528.72;;;7.76;100.00
61908;BME280;47864;52.526;19.672;2022-09-20T01:06:40;100534.50;;;7.60;100.00
61908;BME280;47864;52.526;19.672;2022-09-20T01:08:46;100531.75;;;7.62;100.00
61908;BME280;47864;52.526;19.672;2022-09-20T01:10:50;100537.72;;;7.64;100.00
61908;BME280;47864;52.526;19.672;2022-09-20T01:12:52;100538.03;;;7.71;100.00
61908;BME280;47864;52.526;19.672;2022-09-20T01:14:55;100536.66;;;7.76;100.00
61908;BME280;47864;52.526;19.672;2022-09-20T01:17:02;100533.28;;;7.74;100.00
61908;BME280;47864;52.526;19.672;2022-09-20T01:19:17;100537.63;;;7.75;100.00
61908;BME280;47864;52.526;19.672;2022-09-20T01:21:20;100544.09;;;7.61;100.00
61908;BME280;47864;52.526;19.672;2022-09-20T01:28:05;100539.53;;;7.63;100.00
61908;BME280;47864;52.526;19.672;2022-09-20T01:30:12;100524.25;;;7.57;100.00
61908;BME280;47864;52.526;19.672;2022-09-20T01:32:19;100525.88;;;7.49;100.00
61908;BME280;47864;52.526;19.672;2022-09-20T01:34:31;100523.50;;;7.46;100.00
61908;BME280;47864;52.526;19.672;2022-09-20T01:39:14;100530.56;;;7.45;100.00
61908;BME280;47864;52.526;19.672;2022-09-20T01:41:23;100537.66;;;7.45;100.00
61908;BME280;47864;52.526;19.672;2022-09-20T01:45:57;100537.25;;;7.49;100.00
61908;BME280;47864;52.526;19.672;2022-09-20T01:48:36;100531.16;;;7.49;100.00
61908;BME280;47864;52.526;19.672;2022-09-20T02:07:00;100544.19;;;7.20;100.00
61908;BME280;47864;52.526;19.672;2022-09-20T02:13:59;100558.22;;;7.20;100.00
61908;BME280;47864;52.526;19.672;2022-09-20T02:16:35;100559.31;;;7.18;100.00
61908;BME280;47864;52.526;19.672;2022-09-20T02:21:28;100562.97;;;7.26;100.00
61908;BME280;47864;52.526;19.672;2022-09-20T02:23:50;100561.66;;;7.42;100.00
61908;BME280;47864;52.526;19.672;2022-09-20T02:28:37;100568.94;;;7.49;100.00
61908;BME280;47864;52.526;19.672;2022-09-20T02:31:14;100565.97;;;7.43;100.00
61908;BME280;47864;52.526;19.672;2022-09-20T02:33:44;100569.75;;;7.50;100.00
61908;BME280;47864;52.526;19.672;2022-09-20T02:38:32;100570.75;;;7.58;100.00
61908;BME280;47864;52.526;19.672;2022-09-20T02:40:45;100572.56;;;7.58;100.00
61908;BME280;47864;52.526;19.672;2022-09-20T02:45:13;100568.41;;;7.55;100.00
61908;BME280;47864;52.526;19.672;2022-09-20T02:47:22;100570.28;;;7.44;100.00
61908;BME280;47864;52.526;19.672;2022-09-20T02:52:28;100568.41;;;7.55;100.00
61908;BME280;47864;52.526;19.672;2022-09-20T02:58:48;100574.41;;;7.67;100.00
61908;BME280;47864;52.526;19.672;2022-09-20T03:01:01;100572.09;;;7.74;100.00
61908;BME280;47864;52.526;19.672;2022-09-20T03:03:42;100568.91;;;7.80;100.00
61908;BME280;47864;52.526;19.672;2022-09-20T03:08:30;100567.63;;;7.74;100.00
61908;BME280;47864;52.526;19.672;2022-09-20T03:18:18;100570.16;;;7.85;100.00
61908;BME280;47864;52.526;19.672;2022-09-20T03:22:47;100571.69;;;7.78;100.00
61908;BME280;47864;52.526;19.672;2022-09-20T03:32:42;100566.81;;;7.83;100.00
61908;BME280;47864;52.526;19.672;2022-09-20T03:37:08;100569.91;;;7.88;100.00
61908;BME280;47864;52.526;19.672;2022-09-20T03:42:31;100578.63;;;7.79;100.00
61908;BME280;47864;52.526;19.672;2022-09-20T03:47:00;100585.44;;;7.72;100.00
61908;BME280;47864;52.526;19.672;2022-09-20T04:04:30;100598.22;;;7.77;100.00
61908;BME280;47864;52.526;19.672;2022-09-20T04:13:30;100600.31;;;7.83;100.00
61908;BME280;47864;52.526;19.672;2022-09-20T04:15:55;100603.94;;;7.82;100.00
61908;BME280;47864;52.526;19.672;2022-09-20T04:22:19;100617.41;;;7.79;100.00
61908;BME280;47864;52.526;19.672;2022-09-20T04:26:35;100623.13;;;7.84;100.00
61908;BME280;47864;52.526;19.672;2022-09-20T04:28:47;100625.63;;;7.85;100.00
61908;BME280;47864;52.526;19.672;2022-09-20T04:30:55;100628.28;;;7.85;100.00
61908;BME280;47864;52.526;19.672;2022-09-20T04:37:31;100617.09;;;7.72;100.00
61908;BME280;47864;52.526;19.672;2022-09-20T04:39:50;100633.00;;;7.82;100.00
61908;BME280;47864;52.526;19.672;2022-09-20T04:47:06;100638.41;;;7.80;100.00
61908;BME280;47864;52.526;19.672;2022-09-20T04:54:54;100641.88;;;7.81;100.00
61908;BME280;47864;52.526;19.672;2022-09-20T04:57:32;100647.72;;;7.84;100.00
61908;BME280;47864;52.526;19.672;2022-09-20T05:00:20;100645.50;;;7.80;100.00
61908;BME280;47864;52.526;19.672;2022-09-20T05:19:12;100662.88;;;8.13;100.00
61908;BME280;47864;52.526;19.672;2022-09-20T05:26:28;100671.13;;;8.29;100.00
61908;BME280;47864;52.526;19.672;2022-09-20T05:28:43;100677.63;;;8.15;100.00
61908;BME280;47864;52.526;19.672;2022-09-20T05:30:57;100677.38;;;8.28;100.00
61908;BME280;47864;52.526;19.672;2022-09-20T05:42:13;100686.03;;;8.30;100.00
61908;BME280;47864;52.526;19.672;2022-09-20T05:49:06;100678.44;;;8.46;100.00
61908;BME280;47864;52.526;19.672;2022-09-20T05:58:19;100687.09;;;8.58;100.00
61908;BME280;47864;52.526;19.672;2022-09-20T06:00:28;100684.19;;;8.61;100.00
61908;BME280;47864;52.526;19.672;2022-09-20T06:05:15;100699.75;;;8.54;100.00
61908;BME280;47864;52.526;19.672;2022-09-20T06:11:39;100704.25;;;8.63;100.00
61908;BME280;47864;52.526;19.672;2022-09-20T06:16:06;100702.97;;;8.67;100.00
61908;BME280;47864;52.526;19.672;2022-09-20T06:20:45;100708.25;;;8.67;100.00
61908;BME280;47864;52.526;19.672;2022-09-20T06:22:53;100708.41;;;8.75;100.00
61908;BME280;47864;52.526;19.672;2022-09-20T06:27:17;100710.81;;;8.88;100.00
61908;BME280;47864;52.526;19.672;2022-09-20T06:29:27;100705.09;;;8.83;100.00
61908;BME280;47864;52.526;19.672;2022-09-20T06:31:29;100713.72;;;8.75;100.00
61908;BME280;47864;52.526;19.672;2022-09-20T06:33:31;100716.38;;;8.85;100.00
61908;BME280;47864;52.526;19.672;2022-09-20T06:35:47;100705.66;;;8.87;100.00
61908;BME280;47864;52.526;19.672;2022-09-20T06:38:30;100716.94;;;8.98;100.00
61908;BME280;47864;52.526;19.672;2022-09-20T06:40:44;100723.47;;;8.85;100.00
61908;BME280;47864;52.526;19.672;2022-09-20T06:42:46;100727.69;;;8.97;100.00
61908;BME280;47864;52.526;19.672;2022-09-20T06:44:48;100723.50;;;9.04;100.00
61908;BME280;47864;52.526;19.672;2022-09-20T06:46:50;100724.19;;;9.15;100.00
61908;BME280;47864;52.526;19.672;2022-09-20T06:48:52;100730.06;;;9.09;100.00
61908;BME280;47864;52.526;19.672;2022-09-20T06:50:54;100701.75;;;8.91;100.00
61908;BME280;47864;52.526;19.672;2022-09-20T06:52:56;100738.84;;;9.10;100.00
61908;BME280;47864;52.526;19.672;2022-09-20T06:54:58;100738.41;;;9.14;100.00
61908;BME280;47864;52.526;19.672;2022-09-20T06:57:03;100742.19;;;9.12;100.00
61908;BME280;47864;52.526;19.672;2022-09-20T06:59:06;100733.81;;;9.16;100.00
61908;BME280;47864;52.526;19.672;2022-09-20T07:01:08;100746.91;;;9.18;100.00
61908;BME280;47864;52.526;19.672;2022-09-20T07:03:10;100739.66;;;9.10;100.00
61908;BME280;47864;52.526;19.672;2022-09-20T07:05:16;100750.50;;;9.07;100.00
61908;BME280;47864;52.526;19.672;2022-09-20T07:07:18;100755.56;;;9.20;100.00
61908;BME280;47864;52.526;19.672;2022-09-20T07:09:20;100755.41;;;9.12;100.00
61908;BME280;47864;52.526;19.672;2022-09-20T07:11:22;100747.31;;;9.04;100.00
61908;BME280;47864;52.526;19.672;2022-09-20T07:13:24;100749.97;;;9.23;100.00
61908;BME280;47864;52.526;19.672;2022-09-20T07:15:27;100749.00;;;9.34;100.00
61908;BME280;47864;52.526;19.672;2022-09-20T07:17:29;100752.34;;;9.26;100.00
61908;BME280;47864;52.526;19.672;2022-09-20T07:19:31;100755.13;;;9.15;100.00
61908;BME280;47864;52.526;19.672;2022-09-20T07:21:33;100752.34;;;9.26;100.00
61908;BME280;47864;52.526;19.672;2022-09-20T07:23:35;100756.13;;;9.43;100.00
61908;BME280;47864;52.526;19.672;2022-09-20T07:25:36;100758.19;;;9.49;100.00
61908;BME280;47864;52.526;19.672;2022-09-20T07:27:38;100751.78;;;9.51;100.00
61908;BME280;47864;52.526;19.672;2022-09-20T07:29:40;100757.94;;;9.62;100.00
61908;BME280;47864;52.526;19.672;2022-09-20T07:31:42;100755.09;;;9.73;100.00
61908;BME280;47864;52.526;19.672;2022-09-20T07:33:44;100761.81;;;9.77;100.00
61908;BME280;47864;52.526;19.672;2022-09-20T07:35:51;100762.22;;;9.82;100.00
61908;BME280;47864;52.526;19.672;2022-09-20T07:37:57;100762.50;;;9.79;100.00
61908;BME280;47864;52.526;19.672;2022-09-20T07:39:59;100766.66;;;9.91;100.00
61908;BME280;47864;52.526;19.672;2022-09-20T07:42:01;100763.72;;;10.04;100.00
61908;BME280;47864;52.526;19.672;2022-09-20T07:44:02;100771.13;;;10.00;100.00
61908;BME280;47864;52.526;19.672;2022-09-20T07:46:05;100771.69;;;10.04;100.00
61908;BME280;47864;52.526;19.672;2022-09-20T07:48:06;100774.16;;;10.05;100.00
61908;BME280;47864;52.526;19.672;2022-09-20T07:50:08;100778.78;;;10.13;100.00
61908;BME280;47864;52.526;19.672;2022-09-20T07:52:10;100785.00;;;10.31;100.00
61908;BME280;47864;52.526;19.672;2022-09-20T07:54:12;100783.16;;;10.41;100.00
61908;BME280;47864;52.526;19.672;2022-09-20T07:56:15;100786.88;;;10.58;100.00
61908;BME280;47864;52.526;19.672;2022-09-20T07:58:17;100784.03;;;10.69;100.00
61908;BME280;47864;52.526;19.672;2022-09-20T08:00:18;100793.91;;;10.40;100.00
61908;BME280;47864;52.526;19.672;2022-09-20T08:02:20;100790.31;;;10.31;100.00
61908;BME280;47864;52.526;19.672;2022-09-20T08:04:23;100777.03;;;10.41;100.00
61908;BME280;47864;52.526;19.672;2022-09-20T08:06:24;100794.69;;;10.59;100.00
61908;BME280;47864;52.526;19.672;2022-09-20T08:08:27;100794.25;;;10.54;100.00
61908;BME280;47864;52.526;19.672;2022-09-20T08:10:29;100797.88;;;10.63;100.00
61908;BME280;47864;52.526;19.672;2022-09-20T08:12:31;100798.75;;;10.54;100.00
61908;BME280;47864;52.526;19.672;2022-09-20T08:14:53;100790.56;;;10.75;100.00
61908;BME280;47864;52.526;19.672;2022-09-20T08:16:54;100798.94;;;10.97;100.00
61908;BME280;47864;52.526;19.672;2022-09-20T08:18:59;100789.59;;;11.03;100.00
61908;BME280;47864;52.526;19.672;2022-09-20T08:21:05;100801.84;;;11.04;100.00
61908;BME280;47864;52.526;19.672;2022-09-20T08:23:07;100797.38;;;11.04;100.00
61908;BME280;47864;52.526;19.672;2022-09-20T08:25:24;100801.81;;;10.86;100.00
61908;BME280;47864;52.526;19.672;2022-09-20T08:27:26;100802.41;;;10.80;100.00
61908;BME280;47864;52.526;19.672;2022-09-20T08:29:28;100798.38;;;10.76;100.00
61908;BME280;47864;52.526;19.672;2022-09-20T08:31:31;100798.38;;;11.03;100.00
61908;BME280;47864;52.526;19.672;2022-09-20T08:33:34;100800.25;;;10.93;100.00
61908;BME280;47864;52.526;19.672;2022-09-20T08:35:36;100804.91;;;10.82;100.00
61908;BME280;47864;52.526;19.672;2022-09-20T08:37:40;100803.44;;;10.97;100.00
61908;BME280;47864;52.526;19.672;2022-09-20T08:39:41;100805.66;;;11.01;100.00
61908;BME280;47864;52.526;19.672;2022-09-20T08:42:28;100808.72;;;11.24;100.00
61908;BME280;47864;52.526;19.672;2022-09-20T08:44:58;100805.03;;;11.35;100.00
61908;BME280;47864;52.526;19.672;2022-09-20T08:47:16;100809.66;;;11.68;100.00
61908;BME280;47864;52.526;19.672;2022-09-20T08:49:27;100805.09;;;11.78;100.00
61908;BME280;47864;52.526;19.672;2022-09-20T08:51:32;100811.16;;;11.71;100.00
61908;BME280;47864;52.526;19.672;2022-09-20T08:53:35;100810.31;;;11.70;100.00
61908;BME280;47864;52.526;19.672;2022-09-20T08:55:39;100814.56;;;11.63;100.00
61908;BME280;47864;52.526;19.672;2022-09-20T08:57:41;100809.81;;;11.67;100.00
61908;BME280;47864;52.526;19.672;2022-09-20T08:59:43;100806.59;;;11.63;100.00
61908;BME280;47864;52.526;19.672;2022-09-20T09:01:47;100816.06;;;11.75;100.00
61908;BME280;47864;52.526;19.672;2022-09-20T09:03:57;100812.47;;;11.85;100.00
61908;BME280;47864;52.526;19.672;2022-09-20T09:06:02;100813.94;;;12.05;100.00
61908;BME280;47864;52.526;19.672;2022-09-20T09:08:27;100814.28;;;12.28;100.00
61908;BME280;47864;52.526;19.672;2022-09-20T09:10:37;100806.81;;;12.31;100.00
61908;BME280;47864;52.526;19.672;2022-09-20T09:12:44;100813.28;;;12.29;100.00
61908;BME280;47864;52.526;19.672;2022-09-20T09:14:51;100814.44;;;12.26;100.00
61908;BME280;47864;52.526;19.672;2022-09-20T09:16:53;100812.34;;;12.38;100.00
61908;BME280;47864;52.526;19.672;2022-09-20T09:18:55;100799.56;;;12.41;100.00
61908;BME280;47864;52.526;19.672;2022-09-20T09:20:57;100801.00;;;12.62;100.00
61908;BME280;47864;52.526;19.672;2022-09-20T09:23:00;100813.47;;;12.95;100.00
61908;BME280;47864;52.526;19.672;2022-09-20T09:25:27;100818.28;;;13.33;100.00
61908;BME280;47864;52.526;19.672;2022-09-20T09:27:29;100812.47;;;12.96;100.00
61908;BME280;47864;52.526;19.672;2022-09-20T09:29:31;100808.28;;;12.51;100.00
61908;BME280;47864;52.526;19.672;2022-09-20T09:31:35;100818.53;;;12.72;100.00
61908;BME280;47864;52.526;19.672;2022-09-20T09:33:42;100815.81;;;12.98;100.00
61908;BME280;47864;52.526;19.672;2022-09-20T09:38:00;100828.63;;;13.03;100.00
61908;BME280;47864;52.526;19.672;2022-09-20T09:40:17;100817.97;;;13.03;100.00
61908;BME280;47864;52.526;19.672;2022-09-20T09:42:20;100820.50;;;13.12;100.00
61908;BME280;47864;52.526;19.672;2022-09-20T09:44:26;100820.44;;;13.30;100.00
61908;BME280;47864;52.526;19.672;2022-09-20T09:46:33;100827.25;;;13.24;100.00
61908;BME280;47864;52.526;19.672;2022-09-20T09:48:36;100827.59;;;13.29;100.00
61908;BME280;47864;52.526;19.672;2022-09-20T09:50:40;100822.13;;;13.39;100.00
61908;BME280;47864;52.526;19.672;2022-09-20T09:52:56;100828.94;;;13.33;100.00
61908;BME280;47864;52.526;19.672;2022-09-20T09:54:58;100821.81;;;13.42;100.00
61908;BME280;47864;52.526;19.672;2022-09-20T10:06:24;100831.28;;;13.45;100.00
61908;BME280;47864;52.526;19.672;2022-09-20T10:15:44;100831.31;;;13.85;100.00
61908;BME280;47864;52.526;19.672;2022-09-20T10:22:47;100827.50;;;14.04;100.00
61908;BME280;47864;52.526;19.672;2022-09-20T10:25:28;100832.31;;;14.08;100.00
61908;BME280;47864;52.526;19.672;2022-09-20T10:30:16;100831.97;;;14.44;100.00
61908;BME280;47864;52.526;19.672;2022-09-20T10:32:23;100827.13;;;14.56;100.00
61908;BME280;47864;52.526;19.672;2022-09-20T10:37:13;100824.53;;;15.17;100.00
61908;BME280;47864;52.526;19.672;2022-09-20T10:39:36;100825.06;;;14.74;100.00
61908;BME280;47864;52.526;19.672;2022-09-20T10:46:27;100832.66;;;14.46;100.00
61908;BME280;47864;52.526;19.672;2022-09-20T10:48:47;100832.66;;;14.30;100.00
61908;BME280;47864;52.526;19.672;2022-09-20T10:53:07;100830.66;;;14.40;100.00
61908;BME280;47864;52.526;19.672;2022-09-20T10:57:59;100826.84;;;14.90;100.00
61908;BME280;47864;52.526;19.672;2022-09-20T11:08:36;100822.19;;;15.53;100.00
61908;BME280;47864;52.526;19.672;2022-09-20T11:10:43;100813.28;;;15.61;100.00
61908;BME280;47864;52.526;19.672;2022-09-20T11:15:30;100802.81;;;15.43;100.00
61908;BME280;47864;52.526;19.672;2022-09-20T11:17:34;100816.59;;;14.62;100.00
61908;BME280;47864;52.526;19.672;2022-09-20T11:19:47;100809.88;;;14.66;100.00
61908;BME280;47864;52.526;19.672;2022-09-20T11:26:49;100803.72;;;15.36;100.00
61908;BME280;47864;52.526;19.672;2022-09-20T11:31:25;100797.78;;;15.48;92.25
61908;BME280;47864;52.526;19.672;2022-09-20T11:33:36;100809.66;;;15.46;95.26
61908;BME280;47864;52.526;19.672;2022-09-20T11:35:47;100808.69;;;15.70;96.69
61908;BME280;47864;52.526;19.672;2022-09-20T11:38:39;100813.75;;;15.65;92.63
61908;BME280;47864;52.526;19.672;2022-09-20T11:40:26;100818.78;;;16.05;92.30
61908;BME280;47864;52.526;19.672;2022-09-20T11:42:38;100818.91;;;15.66;87.48
61908;BME280;47864;52.526;19.672;2022-09-20T11:44:41;100820.63;;;16.05;90.88
61908;BME280;47864;52.526;19.672;2022-09-20T11:46:50;100816.16;;;15.97;87.90
61908;BME280;47864;52.526;19.672;2022-09-20T11:53:22;100817.63;;;16.52;82.43
61908;BME280;47864;52.526;19.672;2022-09-20T11:57:36;100826.19;;;16.32;80.55
61908;BME280;47864;52.526;19.672;2022-09-20T11:59:40;100817.56;;;16.08;84.33
61908;BME280;47864;52.526;19.672;2022-09-20T12:01:42;100817.88;;;16.27;80.30
61908;BME280;47864;52.526;19.672;2022-09-20T12:03:49;100821.44;;;16.05;82.77
61908;BME280;47864;52.526;19.672;2022-09-20T12:06:33;100822.25;;;15.37;83.85
61908;BME280;47864;52.526;19.672;2022-09-20T12:08:38;100816.31;;;15.50;84.16
61908;BME280;47864;52.526;19.672;2022-09-20T12:10:41;100810.34;;;15.48;85.85
61908;BME280;47864;52.526;19.672;2022-09-20T12:12:45;100820.16;;;15.55;83.78
61908;BME280;47864;52.526;19.672;2022-09-20T12:14:55;100814.44;;;15.58;85.12
61908;BME280;47864;52.526;19.672;2022-09-20T12:16:57;100816.69;;;15.47;83.84
61908;BME280;47864;52.526;19.672;2022-09-20T12:19:02;100814.63;;;15.26;82.13
61908;BME280;47864;52.526;19.672;2022-09-20T12:21:06;100809.00;;;15.44;82.04
61908;BME280;47864;52.526;19.672;2022-09-20T12:26:01;100797.44;;;15.74;75.71
61908;BME280;47864;52.526;19.672;2022-09-20T12:28:13;100806.69;;;15.72;74.49
61908;BME280;47864;52.526;19.672;2022-09-20T12:30:18;100811.53;;;15.91;75.21
61908;BME280;47864;52.526;19.672;2022-09-20T12:32:33;100802.16;;;16.10;75.57
61908;BME280;47864;52.526;19.672;2022-09-20T12:34:40;100787.22;;;15.78;72.27
61908;BME280;47864;52.526;19.672;2022-09-20T12:37:15;100798.75;;;15.78;75.43
61908;BME280;47864;52.526;19.672;2022-09-20T12:41:16;100801.63;;;15.77;71.80
61908;BME280;47864;52.526;19.672;2022-09-20T12:43:31;100795.16;;;16.23;71.09
61908;BME280;47864;52.526;19.672;2022-09-20T12:45:34;100796.13;;;16.60;70.08
61908;BME280;47864;52.526;19.672;2022-09-20T12:47:36;100805.38;;;16.72;71.45
61908;BME280;47864;52.526;19.672;2022-09-20T12:49:39;100800.81;;;16.43;73.09
61908;BME280;47864;52.526;19.672;2022-09-20T12:51:49;100804.19;;;16.74;75.74
61908;BME280;47864;52.526;19.672;2022-09-20T12:54:06;100807.75;;;16.38;77.45
61908;BME280;47864;52.526;19.672;2022-09-20T12:56:15;100802.84;;;16.56;75.76
61908;BME280;47864;52.526;19.672;2022-09-20T12:58:51;100811.63;;;16.35;77.72
61908;BME280;47864;52.526;19.672;2022-09-20T13:02:58;100808.06;;;15.82;72.00
61908;BME280;47864;52.526;19.672;2022-09-20T13:05:00;100814.97;;;15.99;71.86
61908;BME280;47864;52.526;19.672;2022-09-20T13:07:38;100803.16;;;15.94;72.76
61908;BME280;47864;52.526;19.672;2022-09-20T13:09:44;100815.53;;;16.10;73.50
61908;BME280;47864;52.526;19.672;2022-09-20T13:11:53;100807.94;;;16.51;73.50
61908;BME280;47864;52.526;19.672;2022-09-20T13:16:00;100804.31;;;15.91;71.47
61908;BME280;47864;52.526;19.672;2022-09-20T13:18:03;100812.03;;;16.09;74.62
61908;BME280;47864;52.526;19.672;2022-09-20T13:20:18;100820.47;;;16.21;71.10
61908;BME280;47864;52.526;19.672;2022-09-20T13:22:25;100808.81;;;15.76;71.18
61908;BME280;47864;52.526;19.672;2022-09-20T13:24:33;100816.75;;;15.39;72.23
61908;BME280;47864;52.526;19.672;2022-09-20T13:26:43;100819.69;;;15.21;74.35
61908;BME280;47864;52.526;19.672;2022-09-20T13:28:51;100811.94;;;15.26;74.25
61908;BME280;47864;52.526;19.672;2022-09-20T13:33:23;100815.16;;;15.21;75.63
61908;BME280;47864;52.526;19.672;2022-09-20T13:35:26;100826.50;;;15.23;75.86
61908;BME280;47864;52.526;19.672;2022-09-20T13:37:28;100820.72;;;15.12;74.81
61908;BME280;47864;52.526;19.672;2022-09-20T13:39:33;100813.50;;;14.90;75.03
61908;BME280;47864;52.526;19.672;2022-09-20T13:41:36;100818.34;;;14.86;75.12
61908;BME280;47864;52.526;19.672;2022-09-20T13:43:44;100826.06;;;14.73;79.21
61908;BME280;47864;52.526;19.672;2022-09-20T13:45:52;100830.56;;;14.72;75.93
61908;BME280;47864;52.526;19.672;2022-09-20T13:47:58;100820.88;;;14.79;76.85
61908;BME280;47864;52.526;19.672;2022-09-20T13:50:28;100827.88;;;14.80;79.22
61908;BME280;47864;52.526;19.672;2022-09-20T13:52:31;100834.50;;;14.93;76.93
61908;BME280;47864;52.526;19.672;2022-09-20T13:54:33;100833.81;;;14.99;78.01
61908;BME280;47864;52.526;19.672;2022-09-20T13:56:34;100835.38;;;14.77;78.39
61908;BME280;47864;52.526;19.672;2022-09-20T13:58:36;100825.84;;;14.82;80.66
61908;BME280;47864;52.526;19.672;2022-09-20T14:00:44;100824.66;;;14.93;83.14
61908;BME280;47864;52.526;19.672;2022-09-20T14:02:47;100826.97;;;14.96;80.11
61908;BME280;47864;52.526;19.672;2022-09-20T14:04:52;100820.81;;;14.96;81.20
61908;BME280;47864;52.526;19.672;2022-09-20T14:06:56;100822.66;;;14.87;82.29
61908;BME280;47864;52.526;19.672;2022-09-20T14:09:02;100825.97;;;14.97;79.57
61908;BME280;47864;52.526;19.672;2022-09-20T14:11:24;100827.88;;;15.19;78.63
61908;BME280;47864;52.526;19.672;2022-09-20T14:13:27;100828.06;;;15.10;77.92
61908;BME280;47864;52.526;19.672;2022-09-20T14:15:36;100829.41;;;15.14;78.17
61908;BME280;47864;52.526;19.672;2022-09-20T14:17:39;100834.97;;;15.04;80.34
61908;BME280;47864;52.526;19.672;2022-09-20T14:19:42;100830.03;;;15.16;78.53
61908;BME280;47864;52.526;19.672;2022-09-20T14:21:47;100827.25;;;15.09;79.28
61908;BME280;47864;52.526;19.672;2022-09-20T14:24:01;100837.09;;;15.09;80.92
61908;BME280;47864;52.526;19.672;2022-09-20T14:26:20;100835.97;;;15.03;83.95
61908;BME280;47864;52.526;19.672;2022-09-20T14:28:24;100838.16;;;14.92;83.06
61908;BME280;47864;52.526;19.672;2022-09-20T14:30:32;100834.53;;;14.84;85.10
61908;BME280;47864;52.526;19.672;2022-09-20T14:34:39;100834.06;;;14.81;83.71
61908;BME280;47864;52.526;19.672;2022-09-20T14:36:42;100827.19;;;14.87;83.76
61908;BME280;47864;52.526;19.672;2022-09-20T14:38:46;100837.78;;;15.03;81.87
61908;BME280;47864;52.526;19.672;2022-09-20T14:40:49;100833.22;;;14.80;82.09
61908;BME280;47864;52.526;19.672;2022-09-20T14:42:57;100825.38;;;14.79;81.74
61908;BME280;47864;52.526;19.672;2022-09-20T14:45:00;100834.19;;;14.88;79.00
61908;BME280;47864;52.526;19.672;2022-09-20T14:47:13;100832.34;;;15.27;77.95
61908;BME280;47864;52.526;19.672;2022-09-20T14:51:26;100832.72;;;15.55;75.70
61908;BME280;47864;52.526;19.672;2022-09-20T14:53:28;100830.81;;;15.64;76.62
61908;BME280;47864;52.526;19.672;2022-09-20T14:55:32;100835.09;;;15.73;75.12
61908;BME280;47864;52.526;19.672;2022-09-20T14:57:39;100829.78;;;15.87;74.33
61908;BME280;47864;52.526;19.672;2022-09-20T14:59:41;100833.69;;;15.99;72.58
61908;BME280;47864;52.526;19.672;2022-09-20T15:04:08;100837.09;;;15.93;72.20
61908;BME280;47864;52.526;19.672;2022-09-20T15:06:18;100835.16;;;15.87;72.44
61908;BME280;47864;52.526;19.672;2022-09-20T15:08:20;100832.72;;;15.78;73.66
61908;BME280;47864;52.526;19.672;2022-09-20T15:10:22;100831.38;;;15.74;74.88
61908;BME280;47864;52.526;19.672;2022-09-20T15:12:24;100833.88;;;15.75;75.69
61908;BME280;47864;52.526;19.672;2022-09-20T15:14:26;100831.94;;;15.69;76.81
61908;BME280;47864;52.526;19.672;2022-09-20T15:16:28;100834.06;;;15.43;78.50